sensor_id;sensor_type;location;lat;lon;timestamp;P1;durP1;ratioP1;P2;durP2;ratioP2
4921;SDS011;16625;53.624;10.106;2024-02-14T00:01:21;5.63;;;3.10;;
4921;SDS011;16625;53.624;10.106;2024-02-14T00:03:47;8.90;;;3.10;;
4921;SDS011;16625;53.624;10.106;2024-02-14T00:06:14;5.83;;;3.13;;
4921;SDS011;16625;53.624;10.106;2024-02-14T00:08:41;5.00;;;3.00;;
4921;SDS011;16625;53.624;10.106;2024-02-14T00:11:08;4.80;;;3.20;;
4921;SDS011;16625;53.624;10.106;2024-02-14T00:13:35;7.43;;;3.63;;
4921;SDS011;16625;53.624;10.106;2024-02-14T00:16:03;9.80;;;3.50;;
4921;SDS011;16625;53.624;10.106;2024-02-14T00:18:33;3.70;;;3.30;;
4921;SDS011;16625;53.624;10.106;2024-02-14T00:21:00;3.67;;;2.93;;
4921;SDS011;16625;53.624;10.106;2024-02-14T00:23:27;4.70;;;3.20;;
4921;SDS011;16625;53.624;10.106;2024-02-14T00:25:55;6.83;;;2.80;;
4921;SDS011;16625;53.624;10.106;2024-02-14T00:28:22;4.77;;;3.10;;
4921;SDS011;16625;53.624;10.106;2024-02-14T00:30:52;5.80;;;3.17;;
4921;SDS011;16625;53.624;10.106;2024-02-14T00:33:19;6.40;;;3.90;;
4921;SDS011;16625;53.624;10.106;2024-02-14T00:35:48;4.00;;;3.47;;
4921;SDS011;16625;53.624;10.106;2024-02-14T00:38:15;5.83;;;3.13;;
4921;SDS011;16625;53.624;10.106;2024-02-14T00:40:42;5.93;;;3.00;;
4921;SDS011;16625;53.624;10.106;2024-02-14T00:43:10;4.60;;;2.47;;
4921;SDS011;16625;53.624;10.106;2024-02-14T00:45:37;5.30;;;3.33;;
4921;SDS011;16625;53.624;10.106;2024-02-14T00:48:04;5.93;;;3.40;;
4921;SDS011;16625;53.624;10.106;2024-02-14T00:50:33;4.10;;;3.40;;
4921;SDS011;16625;53.624;10.106;2024-02-14T00:53:01;7.60;;;3.47;;
4921;SDS011;16625;53.624;10.106;2024-02-14T00:55:29;7.87;;;3.07;;
4921;SDS011;16625;53.624;10.106;2024-02-14T00:57:57;4.80;;;2.83;;
4921;SDS011;16625;53.624;10.106;2024-02-14T01:00:24;4.93;;;2.70;;
4921;SDS011;16625;53.624;10.106;2024-02-14T01:02:51;4.87;;;3.07;;
4921;SDS011;16625;53.624;10.106;2024-02-14T01:05:18;3.90;;;3.30;;
4921;SDS011;16625;53.624;10.106;2024-02-14T01:07:45;12.23;;;3.60;;
4921;SDS011;16625;53.624;10.106;2024-02-14T01:10:14;11.50;;;4.70;;
4921;SDS011;16625;53.624;10.106;2024-02-14T01:12:43;3.23;;;2.60;;
4921;SDS011;16625;53.624;10.106;2024-02-14T01:15:10;7.07;;;3.03;;
4921;SDS011;16625;53.624;10.106;2024-02-14T01:17:37;11.30;;;3.20;;
4921;SDS011;16625;53.624;10.106;2024-02-14T01:20:05;8.07;;;3.37;;
4921;SDS011;16625;53.624;10.106;2024-02-14T01:22:34;4.67;;;2.70;;
4921;SDS011;16625;53.624;10.106;2024-02-14T01:25:01;8.53;;;2.90;;
4921;SDS011;16625;53.624;10.106;2024-02-14T01:27:32;3.60;;;2.90;;
4921;SDS011;16625;53.624;10.106;2024-02-14T01:30:00;3.33;;;2.77;;
4921;SDS011;16625;53.624;10.106;2024-02-14T01:32:27;4.97;;;2.90;;
4921;SDS011;16625;53.624;10.106;2024-02-14T01:34:54;4.60;;;3.07;;
4921;SDS011;16625;53.624;10.106;2024-02-14T01:37:22;8.83;;;3.37;;
4921;SDS011;16625;53.624;10.106;2024-02-14T01:39:49;2.97;;;2.67;;
4921;SDS011;16625;53.624;10.106;2024-02-14T01:42:16;4.60;;;2.90;;
4921;SDS011;16625;53.624;10.106;2024-02-14T01:44:45;3.60;;;2.70;;
4921;SDS011;16625;53.624;10.106;2024-02-14T01:47:12;3.50;;;2.77;;
4921;SDS011;16625;53.624;10.106;2024-02-14T01:49:40;3.13;;;2.83;;
4921;SDS011;16625;53.624;10.106;2024-02-14T01:52:09;6.70;;;3.03;;
4921;SDS011;16625;53.624;10.106;2024-02-14T01:54:36;4.30;;;3.10;;
4921;SDS011;16625;53.624;10.106;2024-02-14T01:57:04;6.80;;;2.77;;
4921;SDS011;16625;53.624;10.106;2024-02-14T01:59:32;6.30;;;3.30;;
4921;SDS011;16625;53.624;10.106;2024-02-14T02:02:02;4.73;;;3.07;;
4921;SDS011;16625;53.624;10.106;2024-02-14T02:04:32;4.30;;;2.87;;
4921;SDS011;16625;53.624;10.106;2024-02-14T02:07:00;4.03;;;2.97;;
4921;SDS011;16625;53.624;10.106;2024-02-14T02:09:27;5.63;;;3.13;;
4921;SDS011;16625;53.624;10.106;2024-02-14T02:11:56;3.30;;;3.00;;
4921;SDS011;16625;53.624;10.106;2024-02-14T02:14:23;4.40;;;2.60;;
4921;SDS011;16625;53.624;10.106;2024-02-14T02:19:22;4.00;;;2.97;;
4921;SDS011;16625;53.624;10.106;2024-02-14T02:21:49;3.83;;;2.90;;
4921;SDS011;16625;53.624;10.106;2024-02-14T02:24:19;4.23;;;3.77;;
4921;SDS011;16625;53.624;10.106;2024-02-14T02:54:58;12.27;;;4.00;;
4921;SDS011;16625;53.624;10.106;2024-02-14T02:57:25;6.47;;;3.70;;
4921;SDS011;16625;53.624;10.106;2024-02-14T03:05:14;5.30;;;3.33;;
4921;SDS011;16625;53.624;10.106;2024-02-14T03:16:04;4.93;;;3.47;;
4921;SDS011;16625;53.624;10.106;2024-02-14T03:29:30;6.13;;;4.20;;
4921;SDS011;16625;53.624;10.106;2024-02-14T03:34:28;6.90;;;3.57;;
4921;SDS011;16625;53.624;10.106;2024-02-14T03:41:53;4.80;;;3.80;;
4921;SDS011;16625;53.624;10.106;2024-02-14T03:44:20;8.23;;;3.53;;
4921;SDS011;16625;53.624;10.106;2024-02-14T03:46:49;5.90;;;4.73;;
4921;SDS011;16625;53.624;10.106;2024-02-14T03:49:16;6.20;;;4.50;;
4921;SDS011;16625;53.624;10.106;2024-02-14T03:51:44;6.60;;;3.97;;
4921;SDS011;16625;53.624;10.106;2024-02-14T03:54:14;9.40;;;3.87;;
4921;SDS011;16625;53.624;10.106;2024-02-14T03:56:41;4.67;;;3.90;;
4921;SDS011;16625;53.624;10.106;2024-02-14T03:59:08;6.60;;;4.50;;
4921;SDS011;16625;53.624;10.106;2024-02-14T04:01:35;5.83;;;4.60;;
4921;SDS011;16625;53.624;10.106;2024-02-14T04:04:04;4.20;;;3.77;;
4921;SDS011;16625;53.624;10.106;2024-02-14T04:06:31;7.13;;;4.33;;
4921;SDS011;16625;53.624;10.106;2024-02-14T04:08:58;5.07;;;3.80;;
4921;SDS011;16625;53.624;10.106;2024-02-14T04:11:25;5.33;;;4.33;;
4921;SDS011;16625;53.624;10.106;2024-02-14T04:13:52;5.60;;;4.27;;
4921;SDS011;16625;53.624;10.106;2024-02-14T04:16:19;7.17;;;4.30;;
4921;SDS011;16625;53.624;10.106;2024-02-14T04:18:47;6.93;;;4.37;;
4921;SDS011;16625;53.624;10.106;2024-02-14T04:21:16;4.47;;;3.90;;
4921;SDS011;16625;53.624;10.106;2024-02-14T04:23:45;11.80;;;4.63;;
4921;SDS011;16625;53.624;10.106;2024-02-14T04:26:17;5.33;;;3.93;;
4921;SDS011;16625;53.624;10.106;2024-02-14T04:28:45;5.40;;;3.83;;
4921;SDS011;16625;53.624;10.106;2024-02-14T04:31:12;7.33;;;4.10;;
4921;SDS011;16625;53.624;10.106;2024-02-14T04:33:39;10.13;;;4.10;;
4921;SDS011;16625;53.624;10.106;2024-02-14T04:36:06;9.90;;;4.40;;
4921;SDS011;16625;53.624;10.106;2024-02-14T04:38:35;6.37;;;3.87;;
4921;SDS011;16625;53.624;10.106;2024-02-14T04:41:05;5.27;;;4.00;;
4921;SDS011;16625;53.624;10.106;2024-02-14T04:43:32;6.10;;;4.10;;
4921;SDS011;16625;53.624;10.106;2024-02-14T04:45:59;5.40;;;4.03;;
4921;SDS011;16625;53.624;10.106;2024-02-14T04:48:27;12.23;;;4.33;;
4921;SDS011;16625;53.624;10.106;2024-02-14T04:50:55;9.37;;;4.50;;
4921;SDS011;16625;53.624;10.106;2024-02-14T04:53:22;6.43;;;3.97;;
4921;SDS011;16625;53.624;10.106;2024-02-14T04:55:52;7.93;;;3.80;;
4921;SDS011;16625;53.624;10.106;2024-02-14T04:58:19;8.93;;;4.30;;
4921;SDS011;16625;53.624;10.106;2024-02-14T05:00:46;8.07;;;3.80;;
4921;SDS011;16625;53.624;10.106;2024-02-14T05:03:13;7.10;;;4.63;;
4921;SDS011;16625;53.624;10.106;2024-02-14T05:05:40;10.70;;;4.90;;
4921;SDS011;16625;53.624;10.106;2024-02-14T05:08:08;8.93;;;5.20;;
4921;SDS011;16625;53.624;10.106;2024-02-14T05:10:36;6.83;;;4.27;;
4921;SDS011;16625;53.624;10.106;2024-02-14T05:13:05;8.73;;;4.70;;
4921;SDS011;16625;53.624;10.106;2024-02-14T05:15:33;11.50;;;4.87;;
4921;SDS011;16625;53.624;10.106;2024-02-14T05:18:00;6.97;;;4.20;;
4921;SDS011;16625;53.624;10.106;2024-02-14T05:20:30;6.00;;;4.80;;
4921;SDS011;16625;53.624;10.106;2024-02-14T05:22:57;5.87;;;4.03;;
4921;SDS011;16625;53.624;10.106;2024-02-14T05:25:24;5.23;;;4.37;;
4921;SDS011;16625;53.624;10.106;2024-02-14T05:27:54;10.57;;;5.07;;
4921;SDS011;16625;53.624;10.106;2024-02-14T05:30:23;8.53;;;4.63;;
4921;SDS011;16625;53.624;10.106;2024-02-14T05:32:52;8.23;;;5.00;;
4921;SDS011;16625;53.624;10.106;2024-02-14T05:35:19;7.60;;;5.50;;
4921;SDS011;16625;53.624;10.106;2024-02-14T05:37:48;10.10;;;5.40;;
4921;SDS011;16625;53.624;10.106;2024-02-14T05:40:16;8.83;;;4.80;;
4921;SDS011;16625;53.624;10.106;2024-02-14T05:42:44;6.10;;;4.50;;
4921;SDS011;16625;53.624;10.106;2024-02-14T05:45:14;11.93;;;5.17;;
4921;SDS011;16625;53.624;10.106;2024-02-14T05:47:43;6.23;;;4.93;;
4921;SDS011;16625;53.624;10.106;2024-02-14T05:50:15;10.90;;;5.10;;
4921;SDS011;16625;53.624;10.106;2024-02-14T05:52:42;6.50;;;5.20;;
4921;SDS011;16625;53.624;10.106;2024-02-14T05:55:10;8.10;;;5.53;;
4921;SDS011;16625;53.624;10.106;2024-02-14T05:57:38;8.40;;;5.23;;
4921;SDS011;16625;53.624;10.106;2024-02-14T06:00:05;8.20;;;5.70;;
4921;SDS011;16625;53.624;10.106;2024-02-14T06:02:35;9.40;;;5.50;;
4921;SDS011;16625;53.624;10.106;2024-02-14T06:05:05;8.37;;;5.30;;
4921;SDS011;16625;53.624;10.106;2024-02-14T06:07:34;8.00;;;5.40;;
4921;SDS011;16625;53.624;10.106;2024-02-14T06:10:01;10.20;;;5.67;;
4921;SDS011;16625;53.624;10.106;2024-02-14T06:12:31;8.77;;;5.00;;
4921;SDS011;16625;53.624;10.106;2024-02-14T06:15:02;6.00;;;4.93;;
4921;SDS011;16625;53.624;10.106;2024-02-14T06:17:29;10.40;;;5.90;;
4921;SDS011;16625;53.624;10.106;2024-02-14T06:19:57;8.53;;;5.30;;
4921;SDS011;16625;53.624;10.106;2024-02-14T06:22:31;7.90;;;5.10;;
4921;SDS011;16625;53.624;10.106;2024-02-14T06:32:35;8.23;;;6.23;;
4921;SDS011;16625;53.624;10.106;2024-02-14T06:37:37;6.97;;;5.53;;
4921;SDS011;16625;53.624;10.106;2024-02-14T06:42:38;9.80;;;6.20;;
4921;SDS011;16625;53.624;10.106;2024-02-14T06:48:01;8.63;;;6.27;;
4921;SDS011;16625;53.624;10.106;2024-02-14T07:03:55;7.13;;;5.20;;
4921;SDS011;16625;53.624;10.106;2024-02-14T07:11:48;8.37;;;6.60;;
4921;SDS011;16625;53.624;10.106;2024-02-14T07:46:02;10.17;;;5.87;;
4921;SDS011;16625;53.624;10.106;2024-02-14T07:54:06;9.33;;;6.63;;
4921;SDS011;16625;53.624;10.106;2024-02-14T07:59:26;9.13;;;5.83;;
4921;SDS011;16625;53.624;10.106;2024-02-14T08:02:25;12.50;;;6.50;;
4921;SDS011;16625;53.624;10.106;2024-02-14T08:12:22;8.57;;;6.83;;
4921;SDS011;16625;53.624;10.106;2024-02-14T08:14:51;8.10;;;5.87;;
4921;SDS011;16625;53.624;10.106;2024-02-14T08:17:18;7.90;;;6.03;;
4921;SDS011;16625;53.624;10.106;2024-02-14T08:19:46;9.73;;;6.47;;
4921;SDS011;16625;53.624;10.106;2024-02-14T08:22:14;8.70;;;5.43;;
4921;SDS011;16625;53.624;10.106;2024-02-14T08:24:41;9.63;;;6.80;;
4921;SDS011;16625;53.624;10.106;2024-02-14T08:27:08;9.00;;;6.27;;
4921;SDS011;16625;53.624;10.106;2024-02-14T08:29:35;8.10;;;6.57;;
4921;SDS011;16625;53.624;10.106;2024-02-14T08:32:03;8.00;;;6.70;;
4921;SDS011;16625;53.624;10.106;2024-02-14T08:34:30;8.97;;;5.80;;
4921;SDS011;16625;53.624;10.106;2024-02-14T08:36:59;9.20;;;6.03;;
4921;SDS011;16625;53.624;10.106;2024-02-14T08:39:25;8.13;;;5.43;;
4921;SDS011;16625;53.624;10.106;2024-02-14T08:41:53;7.40;;;5.67;;
4921;SDS011;16625;53.624;10.106;2024-02-14T08:44:19;7.30;;;5.70;;
4921;SDS011;16625;53.624;10.106;2024-02-14T08:46:49;9.27;;;6.10;;
4921;SDS011;16625;53.624;10.106;2024-02-14T08:49:16;8.40;;;5.67;;
4921;SDS011;16625;53.624;10.106;2024-02-14T08:51:43;10.90;;;5.63;;
4921;SDS011;16625;53.624;10.106;2024-02-14T08:54:12;9.80;;;6.40;;
4921;SDS011;16625;53.624;10.106;2024-02-14T08:56:41;6.13;;;4.60;;
4921;SDS011;16625;53.624;10.106;2024-02-14T08:59:08;8.20;;;4.97;;
4921;SDS011;16625;53.624;10.106;2024-02-14T09:01:36;6.77;;;4.57;;
4921;SDS011;16625;53.624;10.106;2024-02-14T09:04:02;8.37;;;5.90;;
4921;SDS011;16625;53.624;10.106;2024-02-14T09:06:29;11.40;;;5.97;;
4921;SDS011;16625;53.624;10.106;2024-02-14T09:08:58;7.70;;;5.47;;
4921;SDS011;16625;53.624;10.106;2024-02-14T09:11:26;7.43;;;5.97;;
4921;SDS011;16625;53.624;10.106;2024-02-14T09:13:53;7.03;;;5.10;;
4921;SDS011;16625;53.624;10.106;2024-02-14T09:16:24;9.47;;;6.33;;
4921;SDS011;16625;53.624;10.106;2024-02-14T09:18:51;6.73;;;5.77;;
4921;SDS011;16625;53.624;10.106;2024-02-14T09:21:18;6.20;;;5.47;;
4921;SDS011;16625;53.624;10.106;2024-02-14T09:23:46;9.50;;;5.93;;
4921;SDS011;16625;53.624;10.106;2024-02-14T09:26:13;6.80;;;5.43;;
4921;SDS011;16625;53.624;10.106;2024-02-14T09:28:43;7.20;;;5.83;;
4921;SDS011;16625;53.624;10.106;2024-02-14T09:31:09;10.70;;;6.90;;
4921;SDS011;16625;53.624;10.106;2024-02-14T09:33:37;6.27;;;5.47;;
4921;SDS011;16625;53.624;10.106;2024-02-14T09:36:05;7.73;;;6.00;;
4921;SDS011;16625;53.624;10.106;2024-02-14T09:38:33;10.40;;;6.93;;
4921;SDS011;16625;53.624;10.106;2024-02-14T09:41:02;10.03;;;6.13;;
4921;SDS011;16625;53.624;10.106;2024-02-14T09:43:34;7.63;;;6.47;;
4921;SDS011;16625;53.624;10.106;2024-02-14T09:46:06;8.57;;;6.00;;
4921;SDS011;16625;53.624;10.106;2024-02-14T09:48:33;6.33;;;5.50;;
4921;SDS011;16625;53.624;10.106;2024-02-14T09:51:03;8.53;;;5.90;;
4921;SDS011;16625;53.624;10.106;2024-02-14T09:53:31;9.50;;;5.97;;
4921;SDS011;16625;53.624;10.106;2024-02-14T09:55:59;7.67;;;5.83;;
4921;SDS011;16625;53.624;10.106;2024-02-14T09:58:28;8.50;;;6.40;;
4921;SDS011;16625;53.624;10.106;2024-02-14T10:00:58;9.93;;;6.87;;
4921;SDS011;16625;53.624;10.106;2024-02-14T10:10:12;11.80;;;7.17;;
4921;SDS011;16625;53.624;10.106;2024-02-14T10:12:39;9.57;;;7.97;;
4921;SDS011;16625;53.624;10.106;2024-02-14T10:15:08;9.13;;;7.43;;
4921;SDS011;16625;53.624;10.106;2024-02-14T10:17:35;11.87;;;7.30;;
4921;SDS011;16625;53.624;10.106;2024-02-14T10:20:06;9.90;;;6.33;;
4921;SDS011;16625;53.624;10.106;2024-02-14T10:22:33;8.73;;;6.60;;
4921;SDS011;16625;53.624;10.106;2024-02-14T10:25:01;8.53;;;6.60;;
4921;SDS011;16625;53.624;10.106;2024-02-14T10:27:29;8.87;;;6.37;;
4921;SDS011;16625;53.624;10.106;2024-02-14T10:29:57;10.70;;;6.17;;
4921;SDS011;16625;53.624;10.106;2024-02-14T10:32:25;8.23;;;6.83;;
4921;SDS011;16625;53.624;10.106;2024-02-14T10:34:52;19.47;;;9.00;;
4921;SDS011;16625;53.624;10.106;2024-02-14T10:37:18;9.53;;;6.67;;
4921;SDS011;16625;53.624;10.106;2024-02-14T10:39:47;12.70;;;8.27;;
4921;SDS011;16625;53.624;10.106;2024-02-14T10:42:17;13.00;;;6.50;;
4921;SDS011;16625;53.624;10.106;2024-02-14T10:44:46;10.50;;;7.10;;
4921;SDS011;16625;53.624;10.106;2024-02-14T10:47:14;10.43;;;6.83;;
4921;SDS011;16625;53.624;10.106;2024-02-14T10:49:45;12.73;;;7.13;;
4921;SDS011;16625;53.624;10.106;2024-02-14T10:52:15;11.73;;;7.50;;
4921;SDS011;16625;53.624;10.106;2024-02-14T10:54:43;11.30;;;7.87;;
4921;SDS011;16625;53.624;10.106;2024-02-14T10:57:16;11.73;;;6.47;;
4921;SDS011;16625;53.624;10.106;2024-02-14T10:59:47;12.43;;;7.00;;
4921;SDS011;16625;53.624;10.106;2024-02-14T11:02:15;6.27;;;4.83;;
4921;SDS011;16625;53.624;10.106;2024-02-14T11:04:43;5.40;;;4.70;;
4921;SDS011;16625;53.624;10.106;2024-02-14T11:07:11;5.63;;;4.37;;
4921;SDS011;16625;53.624;10.106;2024-02-14T11:09:40;6.50;;;5.23;;
4921;SDS011;16625;53.624;10.106;2024-02-14T11:12:07;6.03;;;5.00;;
4921;SDS011;16625;53.624;10.106;2024-02-14T11:14:35;5.23;;;4.20;;
4921;SDS011;16625;53.624;10.106;2024-02-14T11:17:08;4.90;;;4.10;;
4921;SDS011;16625;53.624;10.106;2024-02-14T11:19:36;5.00;;;3.53;;
4921;SDS011;16625;53.624;10.106;2024-02-14T11:22:12;6.60;;;4.53;;
4921;SDS011;16625;53.624;10.106;2024-02-14T11:24:45;5.13;;;4.20;;
4921;SDS011;16625;53.624;10.106;2024-02-14T11:27:12;4.30;;;3.50;;
4921;SDS011;16625;53.624;10.106;2024-02-14T11:29:39;5.03;;;4.40;;
4921;SDS011;16625;53.624;10.106;2024-02-14T11:32:11;4.40;;;3.50;;
4921;SDS011;16625;53.624;10.106;2024-02-14T11:34:38;6.03;;;4.73;;
4921;SDS011;16625;53.624;10.106;2024-02-14T11:37:05;4.27;;;3.17;;
4921;SDS011;16625;53.624;10.106;2024-02-14T11:39:33;5.80;;;4.47;;
4921;SDS011;16625;53.624;10.106;2024-02-14T11:42:00;6.43;;;4.50;;
4921;SDS011;16625;53.624;10.106;2024-02-14T11:44:27;6.50;;;4.40;;
4921;SDS011;16625;53.624;10.106;2024-02-14T11:46:54;5.30;;;4.80;;
4921;SDS011;16625;53.624;10.106;2024-02-14T11:49:23;6.10;;;4.90;;
4921;SDS011;16625;53.624;10.106;2024-02-14T11:51:50;6.50;;;4.90;;
4921;SDS011;16625;53.624;10.106;2024-02-14T11:54:18;10.37;;;4.50;;
4921;SDS011;16625;53.624;10.106;2024-02-14T11:56:47;5.93;;;4.40;;
4921;SDS011;16625;53.624;10.106;2024-02-14T11:59:14;6.03;;;5.23;;
4921;SDS011;16625;53.624;10.106;2024-02-14T12:01:44;5.47;;;4.87;;
4921;SDS011;16625;53.624;10.106;2024-02-14T12:04:13;6.57;;;4.60;;
4921;SDS011;16625;53.624;10.106;2024-02-14T12:06:41;6.33;;;5.00;;
4921;SDS011;16625;53.624;10.106;2024-02-14T12:09:08;9.87;;;5.20;;
4921;SDS011;16625;53.624;10.106;2024-02-14T12:11:36;10.40;;;4.70;;
4921;SDS011;16625;53.624;10.106;2024-02-14T12:14:03;7.30;;;5.10;;
4921;SDS011;16625;53.624;10.106;2024-02-14T12:16:33;6.73;;;5.30;;
4921;SDS011;16625;53.624;10.106;2024-02-14T12:19:03;11.63;;;4.80;;
4921;SDS011;16625;53.624;10.106;2024-02-14T12:21:35;6.93;;;5.53;;
4921;SDS011;16625;53.624;10.106;2024-02-14T12:24:06;5.87;;;4.57;;
4921;SDS011;16625;53.624;10.106;2024-02-14T12:26:34;9.13;;;5.57;;
4921;SDS011;16625;53.624;10.106;2024-02-14T12:29:01;6.70;;;5.50;;
4921;SDS011;16625;53.624;10.106;2024-02-14T12:31:30;7.80;;;5.70;;
4921;SDS011;16625;53.624;10.106;2024-02-14T12:33:57;6.60;;;5.70;;
4921;SDS011;16625;53.624;10.106;2024-02-14T12:36:25;11.27;;;5.90;;
4921;SDS011;16625;53.624;10.106;2024-02-14T12:38:53;6.53;;;5.53;;
4921;SDS011;16625;53.624;10.106;2024-02-14T12:41:22;8.43;;;6.30;;
4921;SDS011;16625;53.624;10.106;2024-02-14T12:43:51;7.40;;;5.13;;
4921;SDS011;16625;53.624;10.106;2024-02-14T12:46:18;7.93;;;5.17;;
4921;SDS011;16625;53.624;10.106;2024-02-14T12:48:45;8.50;;;6.00;;
4921;SDS011;16625;53.624;10.106;2024-02-14T12:51:13;8.30;;;6.00;;
4921;SDS011;16625;53.624;10.106;2024-02-14T12:53:40;7.43;;;6.30;;
4921;SDS011;16625;53.624;10.106;2024-02-14T12:56:07;9.60;;;6.73;;
4921;SDS011;16625;53.624;10.106;2024-02-14T12:58:35;6.80;;;5.40;;
4921;SDS011;16625;53.624;10.106;2024-02-14T13:01:02;9.53;;;6.57;;
4921;SDS011;16625;53.624;10.106;2024-02-14T13:03:31;10.43;;;6.80;;
4921;SDS011;16625;53.624;10.106;2024-02-14T13:05:58;8.57;;;5.97;;
4921;SDS011;16625;53.624;10.106;2024-02-14T13:08:25;8.67;;;6.30;;
4921;SDS011;16625;53.624;10.106;2024-02-14T13:10:52;7.03;;;5.43;;
4921;SDS011;16625;53.624;10.106;2024-02-14T13:13:22;7.67;;;6.00;;
4921;SDS011;16625;53.624;10.106;2024-02-14T13:15:50;8.37;;;6.60;;
4921;SDS011;16625;53.624;10.106;2024-02-14T13:18:17;8.90;;;6.80;;
4921;SDS011;16625;53.624;10.106;2024-02-14T13:20:44;11.23;;;6.63;;
4921;SDS011;16625;53.624;10.106;2024-02-14T13:23:11;12.57;;;6.80;;
4921;SDS011;16625;53.624;10.106;2024-02-14T13:25:39;13.00;;;7.40;;
4921;SDS011;16625;53.624;10.106;2024-02-14T13:28:06;12.53;;;7.87;;
4921;SDS011;16625;53.624;10.106;2024-02-14T13:30:33;9.60;;;6.97;;
4921;SDS011;16625;53.624;10.106;2024-02-14T13:33:01;8.90;;;6.50;;
4921;SDS011;16625;53.624;10.106;2024-02-14T13:35:28;12.17;;;8.00;;
4921;SDS011;16625;53.624;10.106;2024-02-14T13:37:56;10.83;;;7.50;;
4921;SDS011;16625;53.624;10.106;2024-02-14T13:40:24;11.90;;;7.10;;
4921;SDS011;16625;53.624;10.106;2024-02-14T13:42:50;10.00;;;7.10;;
4921;SDS011;16625;53.624;10.106;2024-02-14T13:45:17;11.73;;;7.93;;
4921;SDS011;16625;53.624;10.106;2024-02-14T13:47:44;10.83;;;7.23;;
4921;SDS011;16625;53.624;10.106;2024-02-14T13:50:13;12.27;;;7.43;;
4921;SDS011;16625;53.624;10.106;2024-02-14T13:52:40;11.40;;;7.83;;
4921;SDS011;16625;53.624;10.106;2024-02-14T13:55:07;9.97;;;6.10;;
4921;SDS011;16625;53.624;10.106;2024-02-14T13:57:36;9.83;;;7.17;;
4921;SDS011;16625;53.624;10.106;2024-02-14T14:00:04;10.57;;;8.17;;
4921;SDS011;16625;53.624;10.106;2024-02-14T14:02:34;10.40;;;7.80;;
4921;SDS011;16625;53.624;10.106;2024-02-14T14:05:02;12.07;;;7.57;;
4921;SDS011;16625;53.624;10.106;2024-02-14T14:07:31;16.97;;;7.83;;
4921;SDS011;16625;53.624;10.106;2024-02-14T14:09:58;11.43;;;8.30;;
4921;SDS011;16625;53.624;10.106;2024-02-14T14:12:25;10.90;;;7.27;;
4921;SDS011;16625;53.624;10.106;2024-02-14T14:14:52;10.63;;;7.17;;
4921;SDS011;16625;53.624;10.106;2024-02-14T14:17:19;10.87;;;7.17;;
4921;SDS011;16625;53.624;10.106;2024-02-14T14:19:46;13.17;;;6.97;;
4921;SDS011;16625;53.624;10.106;2024-02-14T14:22:13;13.10;;;7.20;;
4921;SDS011;16625;53.624;10.106;2024-02-14T14:24:42;12.70;;;7.60;;
4921;SDS011;16625;53.624;10.106;2024-02-14T14:27:11;11.17;;;7.00;;
4921;SDS011;16625;53.624;10.106;2024-02-14T14:29:39;11.50;;;7.57;;
4921;SDS011;16625;53.624;10.106;2024-02-14T14:32:07;11.63;;;7.93;;
4921;SDS011;16625;53.624;10.106;2024-02-14T14:34:36;14.07;;;7.93;;
4921;SDS011;16625;53.624;10.106;2024-02-14T14:37:03;13.97;;;8.33;;
4921;SDS011;16625;53.624;10.106;2024-02-14T14:39:31;8.53;;;6.70;;
4921;SDS011;16625;53.624;10.106;2024-02-14T14:41:59;11.27;;;7.87;;
4921;SDS011;16625;53.624;10.106;2024-02-14T14:44:26;10.87;;;7.27;;
4921;SDS011;16625;53.624;10.106;2024-02-14T14:46:55;13.70;;;8.00;;
4921;SDS011;16625;53.624;10.106;2024-02-14T14:49:22;12.50;;;8.63;;
4921;SDS011;16625;53.624;10.106;2024-02-14T14:51:49;12.87;;;8.30;;
4921;SDS011;16625;53.624;10.106;2024-02-14T14:54:15;11.50;;;8.40;;
4921;SDS011;16625;53.624;10.106;2024-02-14T14:56:42;14.20;;;8.80;;
4921;SDS011;16625;53.624;10.106;2024-02-14T14:59:12;11.17;;;8.50;;
4921;SDS011;16625;53.624;10.106;2024-02-14T15:01:40;10.47;;;7.90;;
4921;SDS011;16625;53.624;10.106;2024-02-14T15:04:07;10.00;;;7.37;;
4921;SDS011;16625;53.624;10.106;2024-02-14T15:06:34;11.83;;;8.23;;
4921;SDS011;16625;53.624;10.106;2024-02-14T15:09:01;11.70;;;9.30;;
4921;SDS011;16625;53.624;10.106;2024-02-14T15:11:28;17.43;;;9.23;;
4921;SDS011;16625;53.624;10.106;2024-02-14T15:13:55;21.33;;;10.17;;
4921;SDS011;16625;53.624;10.106;2024-02-14T15:16:23;32.60;;;11.27;;
4921;SDS011;16625;53.624;10.106;2024-02-14T15:18:50;14.93;;;10.70;;
4921;SDS011;16625;53.624;10.106;2024-02-14T15:21:18;16.03;;;10.77;;
4921;SDS011;16625;53.624;10.106;2024-02-14T15:23:45;20.80;;;11.30;;
4921;SDS011;16625;53.624;10.106;2024-02-14T15:26:12;18.50;;;10.57;;
4921;SDS011;16625;53.624;10.106;2024-02-14T15:28:42;17.30;;;11.30;;
4921;SDS011;16625;53.624;10.106;2024-02-14T15:31:10;23.70;;;11.40;;
4921;SDS011;16625;53.624;10.106;2024-02-14T15:33:56;15.60;;;10.50;;
4921;SDS011;16625;53.624;10.106;2024-02-14T15:36:23;16.17;;;10.87;;
4921;SDS011;16625;53.624;10.106;2024-02-14T15:38:51;19.97;;;10.70;;
4921;SDS011;16625;53.624;10.106;2024-02-14T15:41:25;16.43;;;10.63;;
4921;SDS011;16625;53.624;10.106;2024-02-14T15:43:52;13.07;;;11.00;;
4921;SDS011;16625;53.624;10.106;2024-02-14T15:46:19;17.50;;;11.67;;
4921;SDS011;16625;53.624;10.106;2024-02-14T15:48:47;16.60;;;11.73;;
4921;SDS011;16625;53.624;10.106;2024-02-14T15:51:15;16.77;;;10.83;;
4921;SDS011;16625;53.624;10.106;2024-02-14T15:53:42;20.13;;;11.60;;
4921;SDS011;16625;53.624;10.106;2024-02-14T15:56:13;20.80;;;12.07;;
4921;SDS011;16625;53.624;10.106;2024-02-14T15:58:39;20.70;;;10.87;;
4921;SDS011;16625;53.624;10.106;2024-02-14T16:01:07;12.97;;;9.70;;
4921;SDS011;16625;53.624;10.106;2024-02-14T16:03:34;13.30;;;9.47;;
4921;SDS011;16625;53.624;10.106;2024-02-14T16:06:02;13.80;;;9.97;;
4921;SDS011;16625;53.624;10.106;2024-02-14T16:08:32;15.33;;;10.10;;
4921;SDS011;16625;53.624;10.106;2024-02-14T16:10:59;13.97;;;9.90;;
4921;SDS011;16625;53.624;10.106;2024-02-14T16:13:27;14.37;;;9.83;;
4921;SDS011;16625;53.624;10.106;2024-02-14T16:15:55;12.47;;;8.80;;
4921;SDS011;16625;53.624;10.106;2024-02-14T16:18:22;19.03;;;10.37;;
4921;SDS011;16625;53.624;10.106;2024-02-14T16:20:51;14.80;;;10.27;;
4921;SDS011;16625;53.624;10.106;2024-02-14T16:23:18;14.33;;;9.87;;
4921;SDS011;16625;53.624;10.106;2024-02-14T16:25:47;16.10;;;10.57;;
4921;SDS011;16625;53.624;10.106;2024-02-14T16:28:15;19.87;;;10.43;;
4921;SDS011;16625;53.624;10.106;2024-02-14T16:30:42;16.67;;;10.13;;
4921;SDS011;16625;53.624;10.106;2024-02-14T16:33:10;14.73;;;11.10;;
4921;SDS011;16625;53.624;10.106;2024-02-14T16:35:37;16.43;;;11.93;;
4921;SDS011;16625;53.624;10.106;2024-02-14T16:38:04;16.57;;;10.90;;
4921;SDS011;16625;53.624;10.106;2024-02-14T16:40:33;20.30;;;12.83;;
4921;SDS011;16625;53.624;10.106;2024-02-14T16:43:01;18.93;;;12.87;;
4921;SDS011;16625;53.624;10.106;2024-02-14T16:45:31;26.00;;;12.07;;
4921;SDS011;16625;53.624;10.106;2024-02-14T16:47:59;21.53;;;13.87;;
4921;SDS011;16625;53.624;10.106;2024-02-14T16:50:28;18.37;;;12.80;;
4921;SDS011;16625;53.624;10.106;2024-02-14T16:52:58;26.93;;;13.87;;
4921;SDS011;16625;53.624;10.106;2024-02-14T16:55:25;17.20;;;12.07;;
4921;SDS011;16625;53.624;10.106;2024-02-14T16:57:52;16.53;;;10.83;;
4921;SDS011;16625;53.624;10.106;2024-02-14T17:00:20;22.93;;;13.23;;
4921;SDS011;16625;53.624;10.106;2024-02-14T17:02:48;21.60;;;14.07;;
4921;SDS011;16625;53.624;10.106;2024-02-14T17:05:15;19.03;;;12.80;;
4921;SDS011;16625;53.624;10.106;2024-02-14T17:07:42;21.63;;;11.90;;
4921;SDS011;16625;53.624;10.106;2024-02-14T17:10:09;18.70;;;13.03;;
4921;SDS011;16625;53.624;10.106;2024-02-14T17:12:36;25.10;;;13.83;;
4921;SDS011;16625;53.624;10.106;2024-02-14T17:15:03;18.93;;;12.83;;
4921;SDS011;16625;53.624;10.106;2024-02-14T17:17:33;20.40;;;12.90;;